Time;durP1;ratioP1;P1;durP2;ratioP2;P2;SDS_P1;SDS_P2;PMS_P1;PMS_P2;Temp;Humidity;BMP_temperature;BMP_pressure;BME280_temperature;BME280_humidity;BME280_pressure;Samples;Min_cycle;Max_cycle;Signal;HPM_P1;HPM_P2
2023/10/19 00:00:19;;;;;;;29.37;18.93;;;;;;;;;;5036123;28;20489;-83
2023/10/19 00:02:46;;;;;;;28.67;17.67;;;;;;;;;;5038503;28;20497;-83
2023/10/19 00:05:14;;;;;;;28.57;16.67;;;;;;;;;;5040005;28;20481;-83
2023/10/19 00:07:41;;;;;;;26.33;17.90;;;;;;;;;;5039199;28;20458;-84
2023/10/19 00:10:07;;;;;;;29.73;18.80;;;;;;;;;;5036234;28;20515;-83
2023/10/19 00:12:33;;;;;;;26.07;17.90;;;;;;;;;;5037015;28;21057;-83
2023/10/19 00:14:59;;;;;;;26.00;17.17;;;;;;;;;;5028371;28;20279;-84
2023/10/19 00:17:29;;;;;;;34.20;17.97;;;;;;;;;;5033016;28;20485;-84
2023/10/19 00:19:57;;;;;;;23.83;17.37;;;;;;;;;;5041082;28;20470;-84
2023/10/19 00:22:24;;;;;;;30.60;19.67;;;;;;;;;;5040137;28;20886;-85
2023/10/19 00:24:50;;;;;;;25.93;17.87;;;;;;;;;;5039040;28;20462;-84
2023/10/19 00:27:18;;;;;;;26.83;18.43;;;;;;;;;;5043302;28;20441;-84
2023/10/19 00:29:49;;;;;;;30.50;20.07;;;;;;;;;;5038474;28;20220;-85
2023/10/19 00:32:17;;;;;;;37.20;20.53;;;;;;;;;;5033238;28;20589;-83
2023/10/19 00:34:50;;;;;;;28.43;17.70;;;;;;;;;;5037672;28;20518;-83
2023/10/19 00:37:20;;;;;;;28.40;20.17;;;;;;;;;;5035819;28;20517;-84
2023/10/19 00:39:53;;;;;;;28.90;18.40;;;;;;;;;;5042997;28;20446;-83
2023/10/19 00:42:25;;;;;;;31.73;19.20;;;;;;;;;;5043584;28;20462;-84
2023/10/19 00:44:57;;;;;;;27.47;19.60;;;;;;;;;;5035781;28;20480;-84
2023/10/19 00:47:30;;;;;;;27.03;19.60;;;;;;;;;;5036443;28;20449;-85
2023/10/19 00:50:02;;;;;;;28.10;18.83;;;;;;;;;;5043461;28;20503;-84
2023/10/19 00:52:31;;;;;;;29.30;19.23;;;;;;;;;;5042538;28;20817;-84
2023/10/19 00:54:58;;;;;;;30.30;18.47;;;;;;;;;;5038542;28;20458;-83
2023/10/19 00:57:33;;;;;;;32.23;19.87;;;;;;;;;;5037958;28;20516;-84
2023/10/19 01:00:11;;;;;;;30.13;18.87;;;;;;;;;;5046313;28;20469;-83
2023/10/19 01:02:43;;;;;;;33.50;20.73;;;;;;;;;;5040474;28;20465;-83
2023/10/19 01:05:13;;;;;;;32.93;21.13;;;;;;;;;;5041787;28;21005;-83
2023/10/19 01:07:40;;;;;;;27.93;18.10;;;;;;;;;;5038516;28;20472;-84
2023/10/19 01:10:08;;;;;;;34.07;20.20;;;;;;;;;;5042687;28;20489;-83
2023/10/19 01:12:38;;;;;;;32.23;20.60;;;;;;;;;;5041337;28;20465;-83
2023/10/19 01:15:07;;;;;;;29.50;19.13;;;;;;;;;;5040546;28;20975;-82
2023/10/19 01:17:34;;;;;;;37.57;23.40;;;;;;;;;;5034308;28;20513;-83
2023/10/19 01:20:00;;;;;;;38.33;22.10;;;;;;;;;;5040687;28;20456;-83
2023/10/19 01:22:29;;;;;;;38.80;21.77;;;;;;;;;;5040559;28;20497;-83
2023/10/19 01:24:59;;;;;;;38.33;22.43;;;;;;;;;;5042693;28;20501;-83
2023/10/19 01:27:25;;;;;;;39.50;23.13;;;;;;;;;;5039005;28;20525;-83
2023/10/19 01:29:59;;;;;;;36.80;21.30;;;;;;;;;;5040766;28;20488;-82
2023/10/19 01:32:29;;;;;;;37.30;21.00;;;;;;;;;;5041778;28;20465;-83
2023/10/19 01:34:55;;;;;;;36.90;22.90;;;;;;;;;;5042718;28;20484;-83
2023/10/19 01:37:21;;;;;;;38.63;23.37;;;;;;;;;;5034304;28;20529;-83
2023/10/19 01:39:48;;;;;;;35.30;21.70;;;;;;;;;;5042018;28;20448;-83
2023/10/19 01:42:15;;;;;;;41.50;24.07;;;;;;;;;;5042589;28;20624;-83
2023/10/19 01:44:41;;;;;;;38.40;21.50;;;;;;;;;;5033815;28;20500;-84
2023/10/19 01:47:06;;;;;;;34.00;22.43;;;;;;;;;;5041239;28;20517;-84
2023/10/19 01:49:33;;;;;;;43.10;23.60;;;;;;;;;;5040886;28;20477;-83
2023/10/19 01:51:58;;;;;;;32.90;21.50;;;;;;;;;;5040509;28;20207;-83
2023/10/19 01:54:25;;;;;;;30.60;20.43;;;;;;;;;;5040182;28;20442;-83
2023/10/19 01:56:54;;;;;;;35.23;22.07;;;;;;;;;;5041872;28;20212;-83
2023/10/19 01:59:22;;;;;;;35.90;23.10;;;;;;;;;;5041186;28;20493;-82
2023/10/19 02:01:49;;;;;;;40.40;24.47;;;;;;;;;;5040197;28;20485;-82
2023/10/19 02:04:15;;;;;;;39.87;23.50;;;;;;;;;;5037841;28;20458;-83
2023/10/19 02:06:41;;;;;;;43.73;22.73;;;;;;;;;;5039296;28;20446;-83
2023/10/19 02:09:21;;;;;;;38.70;22.90;;;;;;;;;;5039133;28;20480;-82
2023/10/19 02:11:48;;;;;;;44.10;23.57;;;;;;;;;;5039667;28;20203;-83
2023/10/19 02:14:14;;;;;;;40.47;23.50;;;;;;;;;;5038170;28;20469;-82
2023/10/19 02:16:43;;;;;;;37.57;22.00;;;;;;;;;;5042200;28;20450;-82
2023/10/19 02:19:08;;;;;;;44.50;23.97;;;;;;;;;;5038798;28;20557;-83
2023/10/19 02:21:39;;;;;;;41.07;21.77;;;;;;;;;;5040558;28;20942;-83
2023/10/19 02:24:06;;;;;;;40.00;23.47;;;;;;;;;;5041641;28;20791;-83
2023/10/19 02:26:33;;;;;;;36.23;21.33;;;;;;;;;;5041016;28;21025;-83
2023/10/19 02:28:58;;;;;;;36.03;21.77;;;;;;;;;;5040324;28;20454;-85
2023/10/19 02:31:26;;;;;;;34.93;21.00;;;;;;;;;;5041251;28;20446;-85
2023/10/19 02:33:58;;;;;;;37.00;22.33;;;;;;;;;;5040876;28;20218;-84
2023/10/19 02:36:28;;;;;;;36.67;18.87;;;;;;;;;;5038455;28;20453;-83
2023/10/19 02:38:53;;;;;;;40.10;22.70;;;;;;;;;;5037014;28;20489;-84
2023/10/19 02:41:20;;;;;;;37.07;21.33;;;;;;;;;;5041282;28;20513;-85
2023/10/19 02:43:47;;;;;;;35.00;21.60;;;;;;;;;;5040366;28;20218;-84
2023/10/19 02:46:14;;;;;;;34.77;20.20;;;;;;;;;;5039862;28;20447;-85
2023/10/19 02:48:44;;;;;;;34.20;20.37;;;;;;;;;;5038212;28;20460;-84
2023/10/19 02:51:12;;;;;;;33.90;20.27;;;;;;;;;;5043272;28;20527;-85
2023/10/19 02:53:38;;;;;;;35.60;20.23;;;;;;;;;;5040841;28;20465;-84
2023/10/19 02:56:12;;;;;;;36.93;19.77;;;;;;;;;;5037025;28;20441;-84
2023/10/19 02:58:42;;;;;;;38.07;21.37;;;;;;;;;;5039999;28;20524;-85
2023/10/19 03:01:12;;;;;;;34.70;20.07;;;;;;;;;;5033323;28;20460;-85
2023/10/19 03:03:37;;;;;;;37.57;21.13;;;;;;;;;;5038254;28;20532;-84
2023/10/19 03:06:06;;;;;;;37.23;20.20;;;;;;;;;;5037654;28;21266;-84
2023/10/19 03:08:32;;;;;;;35.30;20.43;;;;;;;;;;5035501;28;20211;-83
2023/10/19 03:11:04;;;;;;;33.57;19.90;;;;;;;;;;5041501;28;20544;-83
2023/10/19 03:13:32;;;;;;;32.03;19.00;;;;;;;;;;5037821;28;20465;-83
2023/10/19 03:15:59;;;;;;;36.53;18.73;;;;;;;;;;5037220;28;20458;-81
2023/10/19 03:18:25;;;;;;;30.43;18.37;;;;;;;;;;5040398;28;20501;-84
2023/10/19 03:20:52;;;;;;;33.33;20.40;;;;;;;;;;5037637;28;20486;-83
2023/10/19 03:23:17;;;;;;;29.60;17.50;;;;;;;;;;5040000;28;20517;-84
2023/10/19 03:25:51;;;;;;;36.53;20.70;;;;;;;;;;5041840;28;21055;-83
2023/10/19 03:28:18;;;;;;;28.07;18.23;;;;;;;;;;5037380;28;20210;-84
2023/10/19 03:30:47;;;;;;;28.70;17.37;;;;;;;;;;5028695;28;20477;-84
2023/10/19 03:33:13;;;;;;;34.47;18.87;;;;;;;;;;5038179;28;20501;-84
2023/10/19 03:35:41;;;;;;;28.63;17.10;;;;;;;;;;5040755;28;20994;-84
2023/10/19 03:38:14;;;;;;;24.97;16.00;;;;;;;;;;5037358;28;20903;-84
2023/10/19 03:40:40;;;;;;;28.63;16.80;;;;;;;;;;5038194;28;20458;-84
2023/10/19 03:43:17;;;;;;;25.80;15.40;;;;;;;;;;5038591;28;20466;-84
2023/10/19 03:45:50;;;;;;;27.97;16.30;;;;;;;;;;5038598;28;20465;-83
2023/10/19 03:48:18;;;;;;;25.00;15.07;;;;;;;;;;5039936;28;20468;-84
2023/10/19 03:50:44;;;;;;;25.17;15.47;;;;;;;;;;5040132;28;20437;-84
2023/10/19 03:53:12;;;;;;;26.87;14.80;;;;;;;;;;5039909;28;21180;-84
2023/10/19 03:55:43;;;;;;;24.23;14.90;;;;;;;;;;5038904;28;20488;-85
2023/10/19 03:58:11;;;;;;;23.40;14.30;;;;;;;;;;5034746;28;20540;-84
2023/10/19 04:00:38;;;;;;;22.80;14.90;;;;;;;;;;5038427;28;20919;-84
2023/10/19 04:03:04;;;;;;;25.83;14.17;;;;;;;;;;5037376;28;20473;-85
2023/10/19 04:05:37;;;;;;;22.63;13.77;;;;;;;;;;5039360;28;20449;-85
2023/10/19 04:08:12;;;;;;;20.80;13.73;;;;;;;;;;5038705;28;20480;-85
2023/10/19 04:10:44;;;;;;;22.07;14.33;;;;;;;;;;5035417;28;20453;-85
2023/10/19 04:13:12;;;;;;;23.00;13.40;;;;;;;;;;5036932;28;20461;-85
2023/10/19 04:15:38;;;;;;;23.40;14.80;;;;;;;;;;5037958;28;20489;-85
2023/10/19 04:18:10;;;;;;;23.93;13.60;;;;;;;;;;5032899;28;21019;-85
2023/10/19 04:20:42;;;;;;;24.60;14.70;;;;;;;;;;5035131;28;20458;-85
2023/10/19 04:23:11;;;;;;;20.30;13.67;;;;;;;;;;5032307;28;20619;-85
2023/10/19 04:25:37;;;;;;;23.00;14.20;;;;;;;;;;5032799;28;21150;-85
2023/10/19 04:28:04;;;;;;;23.10;13.20;;;;;;;;;;5039632;28;20541;-84
2023/10/19 04:30:33;;;;;;;25.73;14.77;;;;;;;;;;5037118;28;20497;-84
2023/10/19 04:33:01;;;;;;;24.60;14.43;;;;;;;;;;5037565;28;20458;-85
2023/10/19 04:35:30;;;;;;;21.50;12.80;;;;;;;;;;5035431;28;20469;-84
2023/10/19 04:37:56;;;;;;;23.00;14.43;;;;;;;;;;5035734;28;20474;-82
2023/10/19 04:40:23;;;;;;;21.67;13.87;;;;;;;;;;5032108;28;20447;-83
2023/10/19 04:42:51;;;;;;;22.57;13.30;;;;;;;;;;5038075;28;20457;-83
2023/10/19 04:45:17;;;;;;;20.60;12.70;;;;;;;;;;5037347;28;20497;-83
2023/10/19 04:47:46;;;;;;;20.43;12.80;;;;;;;;;;5038140;28;20521;-83
2023/10/19 04:50:12;;;;;;;19.47;12.20;;;;;;;;;;5039804;28;20450;-83
2023/10/19 04:52:39;;;;;;;18.47;11.50;;;;;;;;;;5037872;28;20492;-82
2023/10/19 04:55:06;;;;;;;19.73;12.77;;;;;;;;;;5033956;28;20588;-83
2023/10/19 04:57:32;;;;;;;18.83;12.13;;;;;;;;;;5039253;28;20516;-83
2023/10/19 04:59:59;;;;;;;21.10;12.40;;;;;;;;;;5038071;28;20513;-83
2023/10/19 05:02:25;;;;;;;19.47;13.40;;;;;;;;;;5039123;28;20530;-84
2023/10/19 05:04:53;;;;;;;19.07;12.10;;;;;;;;;;5039973;28;21293;-84
2023/10/19 05:07:20;;;;;;;25.10;14.17;;;;;;;;;;5039751;28;20459;-84
2023/10/19 05:09:47;;;;;;;20.33;13.07;;;;;;;;;;5040984;28;20954;-83
2023/10/19 05:12:14;;;;;;;23.50;14.63;;;;;;;;;;5043424;28;21354;-83
2023/10/19 05:14:41;;;;;;;24.67;13.20;;;;;;;;;;5036123;28;20462;-83
2023/10/19 05:17:08;;;;;;;23.67;13.63;;;;;;;;;;5041912;28;20460;-84
2023/10/19 05:19:35;;;;;;;25.60;13.80;;;;;;;;;;5037632;28;20552;-83
2023/10/19 05:22:04;;;;;;;20.80;13.70;;;;;;;;;;5042843;28;20572;-83
2023/10/19 05:24:30;;;;;;;20.50;13.43;;;;;;;;;;5038095;28;20473;-83
2023/10/19 05:26:56;;;;;;;22.00;13.93;;;;;;;;;;5036872;28;20500;-83
2023/10/19 05:29:23;;;;;;;25.03;14.63;;;;;;;;;;5041084;28;20458;-83
2023/10/19 05:31:53;;;;;;;22.63;14.13;;;;;;;;;;5037547;28;20484;-85
2023/10/19 05:34:20;;;;;;;23.57;14.60;;;;;;;;;;5040896;28;20469;-84
2023/10/19 05:36:48;;;;;;;26.13;14.60;;;;;;;;;;5041690;28;20513;-83
2023/10/19 05:39:16;;;;;;;23.23;14.40;;;;;;;;;;5042123;28;20482;-84
2023/10/19 05:41:43;;;;;;;19.03;14.20;;;;;;;;;;5043484;28;20897;-82
2023/10/19 05:44:09;;;;;;;23.67;15.30;;;;;;;;;;5034040;28;20521;-84
2023/10/19 05:46:37;;;;;;;20.67;13.97;;;;;;;;;;5042275;28;20477;-82
2023/10/19 05:49:06;;;;;;;27.47;15.40;;;;;;;;;;5038103;28;20485;-74
2023/10/19 05:51:32;;;;;;;32.13;15.53;;;;;;;;;;5039694;28;20469;-74
2023/10/19 05:54:02;;;;;;;31.67;16.63;;;;;;;;;;5036392;28;20484;-75
2023/10/19 05:56:30;;;;;;;24.67;15.23;;;;;;;;;;5036570;28;20480;-75
2023/10/19 05:58:57;;;;;;;23.13;14.47;;;;;;;;;;5039481;28;20485;-75
2023/10/19 06:01:23;;;;;;;26.60;15.70;;;;;;;;;;5039216;28;20487;-75
2023/10/19 06:03:50;;;;;;;26.23;16.07;;;;;;;;;;5041988;28;20481;-76
2023/10/19 06:06:17;;;;;;;32.40;14.70;;;;;;;;;;5041919;28;20453;-89
2023/10/19 06:08:43;;;;;;;30.57;17.87;;;;;;;;;;5042112;28;20481;-86
2023/10/19 06:11:09;;;;;;;29.87;16.63;;;;;;;;;;5037360;28;20446;-82
2023/10/19 06:13:37;;;;;;;31.80;15.40;;;;;;;;;;5041259;28;20553;-82
2023/10/19 06:16:04;;;;;;;33.70;17.33;;;;;;;;;;5040117;28;20525;-81
2023/10/19 06:18:31;;;;;;;24.00;14.50;;;;;;;;;;5040996;28;20496;-82
2023/10/19 06:20:57;;;;;;;29.10;14.97;;;;;;;;;;5041518;28;20446;-82
2023/10/19 06:23:24;;;;;;;28.53;17.93;;;;;;;;;;5040076;28;20593;-81
2023/10/19 06:25:51;;;;;;;33.60;17.43;;;;;;;;;;5041420;28;20466;-82
2023/10/19 06:28:18;;;;;;;29.57;16.73;;;;;;;;;;5040638;28;20465;-82
2023/10/19 06:30:48;;;;;;;32.23;17.17;;;;;;;;;;5039847;28;20482;-82
2023/10/19 06:33:14;;;;;;;30.90;17.17;;;;;;;;;;5036018;28;20446;-83
2023/10/19 06:35:41;;;;;;;30.53;17.83;;;;;;;;;;5033544;28;20461;-82
2023/10/19 06:38:09;;;;;;;31.70;16.63;;;;;;;;;;5036237;28;20455;-83
2023/10/19 06:40:36;;;;;;;31.43;18.97;;;;;;;;;;5032126;28;20489;-83
2023/10/19 06:43:05;;;;;;;32.00;18.93;;;;;;;;;;5036205;28;20465;-83
2023/10/19 06:45:31;;;;;;;31.80;19.60;;;;;;;;;;5038186;28;21061;-83
2023/10/19 06:48:00;;;;;;;36.80;18.87;;;;;;;;;;5034594;28;20490;-82
2023/10/19 06:50:27;;;;;;;35.63;18.93;;;;;;;;;;5035566;28;20454;-84
2023/10/19 06:52:54;;;;;;;39.13;19.27;;;;;;;;;;5037620;28;20490;-83
2023/10/19 06:55:21;;;;;;;34.40;19.00;;;;;;;;;;5037045;28;20468;-83
2023/10/19 06:57:48;;;;;;;35.43;18.67;;;;;;;;;;5036906;28;20548;-83
2023/10/19 07:00:15;;;;;;;33.20;18.83;;;;;;;;;;5040117;28;20501;-83
2023/10/19 07:02:43;;;;;;;34.30;19.63;;;;;;;;;;5032445;28;20460;-82
2023/10/19 07:05:11;;;;;;;36.90;19.07;;;;;;;;;;5042626;28;20454;-83
2023/10/19 07:07:39;;;;;;;41.67;20.50;;;;;;;;;;5042260;28;20538;-82
2023/10/19 07:10:06;;;;;;;44.70;21.73;;;;;;;;;;5031514;28;20457;-82
2023/10/19 07:12:33;;;;;;;40.03;20.43;;;;;;;;;;5041822;28;20511;-81
2023/10/19 07:15:00;;;;;;;43.63;22.00;;;;;;;;;;5040657;28;20468;-81
2023/10/19 07:17:27;;;;;;;35.67;20.73;;;;;;;;;;5036338;28;20515;-80
2023/10/19 07:19:53;;;;;;;38.23;21.17;;;;;;;;;;5037013;28;20513;-81
2023/10/19 07:22:22;;;;;;;50.87;23.23;;;;;;;;;;5039119;28;21099;-82
2023/10/19 07:24:49;;;;;;;47.00;23.40;;;;;;;;;;5041049;28;20486;-80
2023/10/19 07:27:18;;;;;;;47.80;24.43;;;;;;;;;;5039887;28;20560;-81
2023/10/19 07:29:44;;;;;;;48.10;23.07;;;;;;;;;;5032371;28;20450;-81
2023/10/19 07:32:13;;;;;;;44.30;23.23;;;;;;;;;;5040987;28;20457;-80
2023/10/19 07:34:40;;;;;;;38.80;21.80;;;;;;;;;;5041076;28;20446;-80
2023/10/19 07:37:07;;;;;;;43.37;24.17;;;;;;;;;;5040479;28;20453;-80
2023/10/19 07:39:35;;;;;;;42.27;24.03;;;;;;;;;;5040312;28;20512;-80
2023/10/19 07:42:01;;;;;;;46.87;25.03;;;;;;;;;;5037903;28;20450;-80
2023/10/19 07:44:30;;;;;;;44.77;21.53;;;;;;;;;;5040172;28;20465;-81
2023/10/19 07:46:56;;;;;;;49.90;22.47;;;;;;;;;;5040823;28;20458;-79
2023/10/19 07:49:25;;;;;;;46.67;25.60;;;;;;;;;;5036075;28;20959;-81
2023/10/19 07:51:52;;;;;;;45.37;24.07;;;;;;;;;;5039719;28;20461;-80
2023/10/19 07:54:18;;;;;;;46.77;26.60;;;;;;;;;;5040937;28;20453;-82
2023/10/19 07:56:46;;;;;;;57.10;27.50;;;;;;;;;;5035368;28;20445;-82
2023/10/19 07:59:13;;;;;;;48.00;24.90;;;;;;;;;;5039750;28;20585;-81
2023/10/19 08:01:39;;;;;;;54.00;25.97;;;;;;;;;;5040855;28;20450;-80
2023/10/19 08:04:06;;;;;;;53.83;26.30;;;;;;;;;;5039698;28;20489;-81
2023/10/19 08:06:32;;;;;;;48.77;23.13;;;;;;;;;;5035980;28;20537;-82
2023/10/19 08:08:59;;;;;;;53.43;26.30;;;;;;;;;;5039942;28;20458;-81
2023/10/19 08:11:25;;;;;;;56.13;25.37;;;;;;;;;;5037943;28;20468;-81
2023/10/19 08:13:55;;;;;;;53.80;25.60;;;;;;;;;;5037478;28;20469;-81
2023/10/19 08:16:21;;;;;;;48.73;25.23;;;;;;;;;;5040793;28;20454;-81
2023/10/19 08:18:48;;;;;;;47.30;24.57;;;;;;;;;;5040181;28;21003;-81
2023/10/19 08:21:15;;;;;;;47.27;25.47;;;;;;;;;;5035419;28;20474;-80
2023/10/19 08:23:42;;;;;;;49.30;27.33;;;;;;;;;;5040347;28;20854;-80
2023/10/19 08:26:08;;;;;;;47.27;25.23;;;;;;;;;;5035364;28;20515;-80
2023/10/19 08:28:34;;;;;;;46.90;26.00;;;;;;;;;;5042281;28;20458;-81
2023/10/19 08:31:02;;;;;;;48.23;24.10;;;;;;;;;;5040901;28;20442;-80
2023/10/19 08:33:29;;;;;;;49.33;25.70;;;;;;;;;;5039679;28;20467;-81
2023/10/19 08:35:56;;;;;;;47.03;25.37;;;;;;;;;;5041281;28;20489;-81
2023/10/19 08:38:23;;;;;;;53.60;25.77;;;;;;;;;;5040589;28;20462;-81
2023/10/19 08:40:50;;;;;;;53.80;25.40;;;;;;;;;;5039911;28;20465;-80
2023/10/19 08:43:18;;;;;;;43.90;25.10;;;;;;;;;;5044641;28;20473;-80
2023/10/19 08:45:45;;;;;;;45.43;24.80;;;;;;;;;;5044644;28;20818;-80
2023/10/19 08:48:13;;;;;;;53.07;24.57;;;;;;;;;;5043422;28;20471;-80
2023/10/19 08:50:40;;;;;;;46.10;25.23;;;;;;;;;;5042892;28;20555;-81
2023/10/19 08:53:08;;;;;;;44.80;23.80;;;;;;;;;;5044040;28;20481;-81
2023/10/19 08:55:35;;;;;;;51.87;23.93;;;;;;;;;;5040741;28;20457;-81
2023/10/19 08:58:04;;;;;;;44.30;23.37;;;;;;;;;;5043518;28;20517;-83
2023/10/19 09:00:44;;;;;;;47.07;25.53;;;;;;;;;;5040170;28;20480;-82
2023/10/19 09:03:13;;;;;;;50.27;24.07;;;;;;;;;;5044881;28;20552;-82
2023/10/19 09:05:41;;;;;;;36.73;22.57;;;;;;;;;;5044796;28;20454;-80
2023/10/19 09:08:09;;;;;;;38.70;21.10;;;;;;;;;;5041738;28;20460;-81
2023/10/19 09:10:36;;;;;;;44.10;23.53;;;;;;;;;;5038565;28;20453;-79
2023/10/19 09:13:04;;;;;;;35.73;21.00;;;;;;;;;;5044235;28;20535;-81
2023/10/19 09:15:32;;;;;;;40.13;22.57;;;;;;;;;;5039699;28;20473;-80
2023/10/19 09:17:59;;;;;;;37.47;21.77;;;;;;;;;;5039180;28;20469;-79
2023/10/19 09:20:28;;;;;;;34.27;20.80;;;;;;;;;;5041964;28;20512;-78
2023/10/19 09:22:57;;;;;;;42.70;20.77;;;;;;;;;;5043660;28;20481;-80
2023/10/19 09:25:24;;;;;;;34.97;21.80;;;;;;;;;;5049857;28;20452;-80
2023/10/19 09:27:51;;;;;;;40.00;21.43;;;;;;;;;;5042137;28;20485;-81
2023/10/19 09:30:19;;;;;;;40.03;20.87;;;;;;;;;;5042570;28;20462;-80
2023/10/19 09:32:47;;;;;;;34.30;19.67;;;;;;;;;;5042574;28;20454;-81
2023/10/19 09:35:15;;;;;;;34.33;19.47;;;;;;;;;;5043344;28;20462;-81
2023/10/19 09:37:42;;;;;;;33.23;20.00;;;;;;;;;;5043438;28;20482;-80
2023/10/19 09:40:12;;;;;;;32.97;20.60;;;;;;;;;;5043050;28;20904;-82
2023/10/19 09:42:45;;;;;;;31.17;18.73;;;;;;;;;;5043650;28;20488;-81
2023/10/19 09:45:12;;;;;;;27.43;18.40;;;;;;;;;;5038617;28;20468;-82
2023/10/19 09:47:40;;;;;;;32.57;19.57;;;;;;;;;;5043872;28;20462;-81
2023/10/19 09:50:07;;;;;;;31.07;18.03;;;;;;;;;;5037910;28;20518;-82
2023/10/19 09:52:34;;;;;;;33.20;20.13;;;;;;;;;;5040410;28;20496;-82
2023/10/19 09:55:04;;;;;;;30.67;18.90;;;;;;;;;;5035504;28;20486;-81
2023/10/19 09:57:36;;;;;;;31.23;17.90;;;;;;;;;;5041625;28;20453;-81
2023/10/19 10:00:11;;;;;;;28.87;16.10;;;;;;;;;;5037270;28;20493;-81
2023/10/19 10:02:40;;;;;;;27.83;16.63;;;;;;;;;;5036485;28;20453;-81
2023/10/19 10:05:28;;;;;;;27.50;15.80;;;;;;;;;;5041674;28;20473;-80
2023/10/19 10:08:09;;;;;;;28.53;17.30;;;;;;;;;;5040237;28;20469;-80
2023/10/19 10:10:37;;;;;;;25.20;16.73;;;;;;;;;;5038533;28;20851;-81
2023/10/19 10:13:18;;;;;;;26.07;16.53;;;;;;;;;;5043637;28;20500;-81
2023/10/19 10:15:49;;;;;;;24.73;16.70;;;;;;;;;;5039256;28;20469;-81
2023/10/19 10:18:16;;;;;;;27.90;16.37;;;;;;;;;;5038094;28;20465;-81
2023/10/19 10:20:42;;;;;;;28.47;16.23;;;;;;;;;;5034658;28;20513;-81
2023/10/19 10:23:21;;;;;;;19.53;14.33;;;;;;;;;;5040611;28;20566;-82
2023/10/19 10:25:48;;;;;;;25.80;15.80;;;;;;;;;;5038999;28;20504;-82
2023/10/19 10:28:17;;;;;;;26.00;14.97;;;;;;;;;;5035010;28;20520;-81
2023/10/19 10:31:02;;;;;;;22.63;14.40;;;;;;;;;;5035337;28;20466;-80
2023/10/19 10:33:44;;;;;;;19.67;13.70;;;;;;;;;;5033217;28;20457;-80
2023/10/19 10:36:11;;;;;;;17.17;13.07;;;;;;;;;;5036001;28;20543;-81
2023/10/19 10:38:38;;;;;;;18.80;14.00;;;;;;;;;;5034434;28;20481;-80
2023/10/19 10:41:04;;;;;;;18.13;13.00;;;;;;;;;;5033049;28;20546;-80
2023/10/19 10:43:31;;;;;;;22.77;13.43;;;;;;;;;;5040535;28;20477;-80
2023/10/19 10:46:04;;;;;;;17.67;13.17;;;;;;;;;;5033109;28;20466;-80
2023/10/19 10:48:31;;;;;;;17.13;12.73;;;;;;;;;;5035104;28;20449;-81
2023/10/19 10:50:58;;;;;;;15.33;12.33;;;;;;;;;;5039518;28;20445;-81
2023/10/19 10:53:26;;;;;;;17.40;11.97;;;;;;;;;;5035049;28;21179;-81
2023/10/19 10:55:54;;;;;;;13.03;11.10;;;;;;;;;;5039683;28;20830;-82
2023/10/19 10:58:21;;;;;;;11.83;9.20;;;;;;;;;;5032589;28;20524;-82
2023/10/19 11:00:50;;;;;;;11.50;8.77;;;;;;;;;;5040932;28;20950;-81
2023/10/19 11:03:17;;;;;;;9.77;8.70;;;;;;;;;;5040092;28;20461;-81
2023/10/19 11:05:45;;;;;;;9.67;8.77;;;;;;;;;;5042768;28;20476;-81
2023/10/19 11:08:14;;;;;;;9.10;8.00;;;;;;;;;;5042204;28;20489;-82
2023/10/19 11:10:42;;;;;;;11.37;9.07;;;;;;;;;;5038391;28;20450;-80
2023/10/19 11:13:10;;;;;;;15.93;8.83;;;;;;;;;;5042338;28;20478;-81
2023/10/19 11:15:37;;;;;;;8.63;7.63;;;;;;;;;;5038225;28;20473;-81
2023/10/19 11:18:04;;;;;;;7.87;7.07;;;;;;;;;;5044127;28;20454;-80
2023/10/19 11:20:30;;;;;;;6.87;6.20;;;;;;;;;;5042183;28;20963;-80
2023/10/19 11:23:00;;;;;;;6.23;5.63;;;;;;;;;;5036325;28;20509;-80
2023/10/19 11:25:29;;;;;;;8.50;5.87;;;;;;;;;;5033651;28;20465;-81
2023/10/19 11:27:55;;;;;;;6.20;5.60;;;;;;;;;;5041747;28;20458;-82
2023/10/19 11:30:26;;;;;;;4.73;4.27;;;;;;;;;;5041876;28;20496;-82
2023/10/19 11:32:56;;;;;;;4.33;3.93;;;;;;;;;;5041819;28;20458;-80
2023/10/19 11:35:23;;;;;;;4.90;4.37;;;;;;;;;;5036945;28;20449;-81
2023/10/19 11:37:49;;;;;;;6.40;4.10;;;;;;;;;;5036468;28;20994;-80
2023/10/19 11:40:16;;;;;;;4.03;3.30;;;;;;;;;;5042606;28;20460;-81
2023/10/19 11:42:44;;;;;;;5.73;4.67;;;;;;;;;;5042244;28;20446;-80
2023/10/19 11:45:11;;;;;;;4.70;4.30;;;;;;;;;;5031771;28;20550;-81
2023/10/19 11:47:38;;;;;;;9.33;4.33;;;;;;;;;;5038650;28;20458;-80
2023/10/19 11:50:04;;;;;;;5.60;5.00;;;;;;;;;;5039349;28;20492;-81
2023/10/19 11:52:31;;;;;;;4.70;4.30;;;;;;;;;;5042259;28;20454;-80
2023/10/19 11:54:57;;;;;;;4.93;4.63;;;;;;;;;;5034083;28;20485;-80
2023/10/19 11:57:24;;;;;;;7.90;5.13;;;;;;;;;;5041077;28;20477;-80
2023/10/19 11:59:53;;;;;;;5.87;5.20;;;;;;;;;;5035425;28;21145;-80
2023/10/19 12:02:20;;;;;;;6.23;5.63;;;;;;;;;;5036427;28;20508;-80
2023/10/19 12:04:46;;;;;;;6.03;5.43;;;;;;;;;;5042100;28;20458;-80
2023/10/19 12:07:13;;;;;;;6.37;5.37;;;;;;;;;;5041628;28;20986;-80
2023/10/19 12:09:41;;;;;;;7.43;5.13;;;;;;;;;;5041753;28;20450;-80
2023/10/19 12:12:08;;;;;;;5.87;5.20;;;;;;;;;;5040667;28;20457;-80
2023/10/19 12:14:35;;;;;;;6.60;4.93;;;;;;;;;;5042525;28;20480;-81
2023/10/19 12:17:03;;;;;;;6.43;5.10;;;;;;;;;;5040294;28;20457;-81
2023/10/19 12:19:30;;;;;;;5.67;4.50;;;;;;;;;;5039679;28;20461;-80
2023/10/19 12:21:57;;;;;;;7.30;5.67;;;;;;;;;;5041697;28;20497;-80
2023/10/19 12:24:23;;;;;;;5.67;4.33;;;;;;;;;;5038080;28;20478;-80
2023/10/19 12:26:50;;;;;;;5.03;4.60;;;;;;;;;;5036398;28;20473;-81
2023/10/19 12:29:20;;;;;;;6.80;4.67;;;;;;;;;;5040680;28;20468;-80
2023/10/19 12:31:47;;;;;;;5.90;4.63;;;;;;;;;;5040181;28;20453;-81
2023/10/19 12:34:16;;;;;;;4.73;4.30;;;;;;;;;;5032267;28;20529;-80
2023/10/19 12:36:44;;;;;;;6.53;4.30;;;;;;;;;;5041326;28;20870;-80
2023/10/19 12:39:35;;;;;;;6.90;4.73;;;;;;;;;;5032337;28;20462;-76
2023/10/19 12:41:58;;;;;;;6.80;4.70;;;;;;;;;;5036885;28;20482;-76
2023/10/19 12:44:24;;;;;;;7.13;5.13;;;;;;;;;;5035690;28;20474;-77
2023/10/19 12:46:52;;;;;;;5.40;4.90;;;;;;;;;;5038645;28;20477;-77
2023/10/19 12:49:25;;;;;;;5.93;5.43;;;;;;;;;;5034384;28;20461;-76
2023/10/19 12:51:52;;;;;;;6.43;5.07;;;;;;;;;;5038992;28;20453;-77
2023/10/19 12:54:18;;;;;;;8.00;5.30;;;;;;;;;;5037917;28;20454;-77
2023/10/19 12:56:49;;;;;;;5.80;4.57;;;;;;;;;;5039650;28;20461;-77
2023/10/19 12:59:17;;;;;;;4.63;4.17;;;;;;;;;;5039790;28;20465;-77
2023/10/19 13:01:48;;;;;;;4.93;4.43;;;;;;;;;;5038729;28;20590;-77
2023/10/19 13:04:16;;;;;;;5.10;4.60;;;;;;;;;;5037834;28;20464;-77
2023/10/19 13:06:44;;;;;;;5.40;4.90;;;;;;;;;;5035772;28;20461;-77
2023/10/19 13:09:11;;;;;;;5.60;4.93;;;;;;;;;;5039797;28;20458;-77
2023/10/19 13:11:43;;;;;;;9.33;4.30;;;;;;;;;;5046087;28;20469;-77
2023/10/19 13:14:09;;;;;;;6.67;4.90;;;;;;;;;;5039935;28;20536;-77
2023/10/19 13:16:36;;;;;;;5.43;4.93;;;;;;;;;;5038807;28;20525;-77
2023/10/19 13:19:11;;;;;;;6.27;5.53;;;;;;;;;;5037160;28;20485;-76
2023/10/19 13:21:38;;;;;;;6.00;4.87;;;;;;;;;;5035872;28;21059;-76
2023/10/19 13:24:06;;;;;;;5.70;5.17;;;;;;;;;;5036444;28;20534;-77
2023/10/19 13:26:34;;;;;;;5.27;4.77;;;;;;;;;;5039911;28;20449;-77
2023/10/19 13:29:00;;;;;;;5.77;5.20;;;;;;;;;;5043251;28;20871;-77
2023/10/19 13:31:26;;;;;;;6.60;5.53;;;;;;;;;;5042494;28;20473;-77
2023/10/19 13:33:54;;;;;;;12.83;5.77;;;;;;;;;;5039922;28;21191;-77
2023/10/19 13:36:21;;;;;;;6.17;5.13;;;;;;;;;;5041892;28;20551;-78
2023/10/19 13:38:47;;;;;;;5.80;5.20;;;;;;;;;;5044049;28;20553;-76
2023/10/19 13:41:16;;;;;;;6.30;4.83;;;;;;;;;;5043014;28;20481;-77
2023/10/19 13:43:44;;;;;;;5.50;5.00;;;;;;;;;;5043565;28;20469;-76
2023/10/19 13:46:11;;;;;;;6.73;4.70;;;;;;;;;;5036878;28;20640;-77
2023/10/19 13:48:39;;;;;;;6.70;5.50;;;;;;;;;;5041286;28;20462;-78
2023/10/19 13:51:12;;;;;;;6.73;5.80;;;;;;;;;;5039696;28;20445;-77
2023/10/19 13:53:38;;;;;;;7.10;6.27;;;;;;;;;;5042008;28;20774;-78
2023/10/19 13:56:08;;;;;;;8.70;5.43;;;;;;;;;;5037741;28;20486;-78
2023/10/19 13:58:36;;;;;;;5.50;5.00;;;;;;;;;;5037739;28;20569;-78
2023/10/19 14:01:03;;;;;;;6.77;5.60;;;;;;;;;;5043307;28;20497;-78
2023/10/19 14:03:30;;;;;;;6.63;5.63;;;;;;;;;;5043677;28;20450;-78
2023/10/19 14:05:57;;;;;;;5.07;4.57;;;;;;;;;;5040987;28;20468;-77
2023/10/19 14:08:23;;;;;;;6.83;5.37;;;;;;;;;;5046620;28;20474;-77
2023/10/19 14:10:50;;;;;;;5.87;5.33;;;;;;;;;;5042848;28;20469;-78
2023/10/19 14:13:16;;;;;;;6.40;5.80;;;;;;;;;;5041738;28;20454;-78
2023/10/19 14:15:44;;;;;;;6.00;5.40;;;;;;;;;;5039998;28;20475;-78
2023/10/19 14:18:11;;;;;;;5.83;5.30;;;;;;;;;;5039027;28;20549;-78
2023/10/19 14:20:38;;;;;;;7.50;5.30;;;;;;;;;;5040969;28;20501;-78
2023/10/19 14:23:05;;;;;;;6.90;5.83;;;;;;;;;;5041010;28;20550;-78
2023/10/19 14:25:32;;;;;;;5.77;5.17;;;;;;;;;;5042675;28;20445;-78
2023/10/19 14:27:59;;;;;;;6.17;5.53;;;;;;;;;;5042415;28;20516;-78